Time;durP1;ratioP1;P1;durP2;ratioP2;P2;SDS_P1;SDS_P2;PMS_P1;PMS_P2;Temp;Humidity;BMP_temperature;BMP_pressure;BME280_temperature;BME280_humidity;BME280_pressure;Samples;Min_cycle;Max_cycle;Signal;HPM_P1;HPM_P2
2021/10/04 00:01:57;;;;;;;;;;;11.90;99.90;;;;;;5067818;28;19912;-76
2021/10/04 00:04:22;;;;;;;;;;;11.90;99.90;;;;;;5070115;28;19976;-77
2021/10/04 00:06:48;;;;;;;;;;;11.90;99.90;;;;;;5066518;28;19923;-76
2021/10/04 00:09:14;;;;;;;;;;;11.90;99.90;;;;;;5071790;28;19917;-75
2021/10/04 00:11:40;;;;;;;;;;;11.90;99.90;;;;;;5073497;28;20307;-76
2021/10/04 00:14:05;;;;;;;;;;;11.90;99.90;;;;;;5075754;28;20287;-76
2021/10/04 00:16:31;;;;;;;;;;;11.90;99.90;;;;;;5077474;28;19908;-76
2021/10/04 00:18:56;;;;;;;;;;;11.90;99.90;;;;;;5065182;28;19909;-77
2021/10/04 00:21:22;;;;;;;;;;;11.90;99.90;;;;;;5056916;28;19995;-76
2021/10/04 00:23:47;;;;;;;;;;;11.80;99.90;;;;;;5082609;28;19921;-77
2021/10/04 00:26:13;;;;;;;;;;;11.80;99.90;;;;;;5087811;28;19942;-77
2021/10/04 00:28:39;;;;;;;;;;;11.80;99.90;;;;;;5068421;28;20029;-77
2021/10/04 00:31:04;;;;;;;;;;;11.80;99.90;;;;;;5068204;28;19923;-77
2021/10/04 00:33:30;;;;;;;;;;;11.80;99.90;;;;;;5074039;28;19934;-78
2021/10/04 00:35:56;;;;;;;;;;;11.90;99.90;;;;;;5074086;28;20189;-77
2021/10/04 00:38:22;;;;;;;;;;;11.90;99.90;;;;;;5074648;28;19916;-76
2021/10/04 00:40:47;;;;;;;;;;;11.80;99.90;;;;;;5074146;28;19916;-77
2021/10/04 00:43:13;;;;;;;;;;;11.90;99.90;;;;;;5074626;28;19909;-77
2021/10/04 00:45:39;;;;;;;;;;;11.90;99.90;;;;;;5075184;28;20304;-77
2021/10/04 00:48:04;;;;;;;;;;;11.90;99.90;;;;;;5088795;28;19917;-77
2021/10/04 00:50:30;;;;;;;;;;;11.80;99.90;;;;;;5074674;28;20307;-77
2021/10/04 00:52:56;;;;;;;;;;;11.80;99.90;;;;;;5089676;28;19908;-77
2021/10/04 00:55:22;;;;;;;;;;;11.80;99.90;;;;;;5093275;28;19962;-77
2021/10/04 00:57:47;;;;;;;;;;;11.80;99.90;;;;;;5075689;28;19952;-77
2021/10/04 01:00:23;;;;;;;;;;;11.80;99.90;;;;;;5075396;28;19908;-78
2021/10/04 01:02:49;;;;;;;;;;;11.80;99.90;;;;;;5077990;28;19913;-77
2021/10/04 01:05:15;;;;;;;;;;;11.80;99.90;;;;;;5068582;28;19920;-78
2021/10/04 01:07:41;;;;;;;;;;;11.80;99.90;;;;;;5074492;28;19908;-77
2021/10/04 01:10:09;;;;;;;;;;;11.80;99.90;;;;;;5090645;28;19987;-77
2021/10/04 01:12:35;;;;;;;;;;;11.80;99.90;;;;;;5074465;28;19995;-77
2021/10/04 01:15:01;;;;;;;;;;;11.80;99.90;;;;;;5074217;28;19909;-77
2021/10/04 01:17:27;;;;;;;;;;;11.80;99.90;;;;;;5072746;28;20301;-77
2021/10/04 01:19:52;;;;;;;;;;;11.80;99.90;;;;;;5075018;28;20347;-77
2021/10/04 01:22:18;;;;;;;;;;;11.80;99.90;;;;;;5073397;28;20211;-77
2021/10/04 01:24:43;;;;;;;;;;;11.80;99.90;;;;;;5074131;28;19995;-77
2021/10/04 01:27:09;;;;;;;;;;;11.80;99.90;;;;;;5087664;28;19917;-77
2021/10/04 01:29:35;;;;;;;;;;;11.80;99.90;;;;;;5074699;28;19913;-77
2021/10/04 01:32:00;;;;;;;;;;;11.80;99.90;;;;;;5073943;28;19916;-77
2021/10/04 01:34:26;;;;;;;;;;;11.80;99.90;;;;;;5069503;28;19913;-77
2021/10/04 01:36:51;;;;;;;;;;;11.80;99.90;;;;;;5068140;28;19991;-77
2021/10/04 01:39:17;;;;;;;;;;;11.80;99.90;;;;;;5074486;28;19909;-76
2021/10/04 01:41:43;;;;;;;;;;;11.80;99.90;;;;;;5074584;28;19913;-76
2021/10/04 01:44:08;;;;;;;;;;;11.80;99.90;;;;;;5073549;28;19962;-76
2021/10/04 01:46:34;;;;;;;;;;;11.80;99.90;;;;;;5077595;28;19920;-77
2021/10/04 01:48:59;;;;;;;;;;;11.80;99.90;;;;;;5076007;28;19981;-76
2021/10/04 01:51:25;;;;;;;;;;;11.80;99.90;;;;;;5076972;28;20015;-76
2021/10/04 01:53:50;;;;;;;;;;;11.80;99.90;;;;;;5077517;28;19917;-77
2021/10/04 01:56:16;;;;;;;;;;;11.80;99.90;;;;;;5077992;28;19956;-77
2021/10/04 01:58:42;;;;;;;;;;;11.80;99.90;;;;;;5082457;28;20023;-76
2021/10/04 02:01:07;;;;;;;;;;;11.80;99.90;;;;;;5078867;28;19916;-77
2021/10/04 02:03:33;;;;;;;;;;;11.80;99.90;;;;;;5082894;28;19912;-76
2021/10/04 02:05:58;;;;;;;;;;;11.80;99.90;;;;;;5090638;28;19951;-76
2021/10/04 02:08:24;;;;;;;;;;;11.80;99.90;;;;;;5063792;28;19924;-76
2021/10/04 02:10:50;;;;;;;;;;;11.80;99.90;;;;;;5077543;28;19908;-76
2021/10/04 02:13:16;;;;;;;;;;;11.80;99.90;;;;;;5077766;28;19913;-78
2021/10/04 02:15:42;;;;;;;;;;;11.80;99.90;;;;;;5078007;28;19915;-77
2021/10/04 02:18:08;;;;;;;;;;;11.70;99.90;;;;;;5077864;28;19917;-83
2021/10/04 02:20:36;;;;;;;;;;;11.80;99.90;;;;;;5091766;28;19916;-77
2021/10/04 02:23:07;;;;;;;;;;;11.80;99.90;;;;;;5076546;28;19932;-77
2021/10/04 02:25:43;;;;;;;;;;;11.80;99.90;;;;;;5078932;28;19917;-76
2021/10/04 02:28:10;;;;;;;;;;;11.70;99.90;;;;;;5067023;28;19917;-77
2021/10/04 02:30:36;;;;;;;;;;;11.80;99.90;;;;;;5076907;28;19917;-77
2021/10/04 02:33:02;;;;;;;;;;;11.70;99.90;;;;;;5074064;28;19912;-77
2021/10/04 02:35:27;;;;;;;;;;;11.80;99.90;;;;;;5076743;28;20003;-77
2021/10/04 02:37:53;;;;;;;;;;;11.80;99.90;;;;;;5077008;28;19915;-77
2021/10/04 02:40:19;;;;;;;;;;;11.80;99.90;;;;;;5080593;28;19936;-77
2021/10/04 02:42:46;;;;;;;;;;;11.80;99.90;;;;;;5076251;28;19912;-77
2021/10/04 02:45:12;;;;;;;;;;;11.90;99.90;;;;;;5075688;28;19917;-76
2021/10/04 02:47:38;;;;;;;;;;;11.90;99.90;;;;;;5077228;28;19913;-78
2021/10/04 02:50:06;;;;;;;;;;;11.90;99.90;;;;;;5079902;28;19919;-77
2021/10/04 02:52:31;;;;;;;;;;;12.00;99.90;;;;;;5069391;28;19963;-77
2021/10/04 02:54:57;;;;;;;;;;;11.90;99.90;;;;;;5076021;28;19976;-76
2021/10/04 02:57:22;;;;;;;;;;;12.00;99.90;;;;;;5076333;28;19917;-76
2021/10/04 02:59:48;;;;;;;;;;;11.90;99.90;;;;;;5076949;28;19959;-77
2021/10/04 03:02:13;;;;;;;;;;;11.90;99.90;;;;;;5075733;28;19965;-76
2021/10/04 03:04:39;;;;;;;;;;;11.90;99.90;;;;;;5075696;28;19923;-76
2021/10/04 03:07:04;;;;;;;;;;;11.80;99.90;;;;;;5073076;28;19931;-76
2021/10/04 03:09:30;;;;;;;;;;;11.80;99.90;;;;;;5075125;28;19913;-76
2021/10/04 03:11:56;;;;;;;;;;;11.80;99.90;;;;;;5074844;28;19917;-76
2021/10/04 03:14:22;;;;;;;;;;;11.80;99.90;;;;;;5077417;28;20015;-77
2021/10/04 03:16:47;;;;;;;;;;;11.70;99.90;;;;;;5066371;28;20629;-77
2021/10/04 03:19:13;;;;;;;;;;;11.80;99.90;;;;;;5082152;28;19955;-76
2021/10/04 03:21:38;;;;;;;;;;;11.80;99.90;;;;;;5072874;28;19916;-77
2021/10/04 03:24:04;;;;;;;;;;;11.70;99.90;;;;;;5063426;28;19928;-76
2021/10/04 03:26:29;;;;;;;;;;;11.70;99.90;;;;;;5086745;28;19929;-77
2021/10/04 03:28:55;;;;;;;;;;;11.70;99.90;;;;;;5076052;28;19923;-77
2021/10/04 03:31:21;;;;;;;;;;;11.70;99.90;;;;;;5075888;28;19912;-78
2021/10/04 03:33:46;;;;;;;;;;;11.60;99.90;;;;;;5098817;28;19920;-77
2021/10/04 03:36:12;;;;;;;;;;;11.60;99.90;;;;;;5076134;28;19913;-77
2021/10/04 03:38:37;;;;;;;;;;;11.60;99.90;;;;;;5075093;28;19915;-76
2021/10/04 03:41:03;;;;;;;;;;;11.60;99.90;;;;;;5072191;28;20214;-77
2021/10/04 03:43:28;;;;;;;;;;;11.60;99.90;;;;;;5076016;28;20273;-76
2021/10/04 03:45:54;;;;;;;;;;;11.50;99.90;;;;;;5075884;28;19920;-76
2021/10/04 03:48:20;;;;;;;;;;;11.50;99.90;;;;;;5074130;28;19908;-76
2021/10/04 03:50:46;;;;;;;;;;;11.50;99.90;;;;;;5075777;28;19912;-76
2021/10/04 03:53:12;;;;;;;;;;;11.50;99.90;;;;;;5075841;28;19962;-77
2021/10/04 03:55:37;;;;;;;;;;;11.50;99.90;;;;;;5084229;28;19919;-78
2021/10/04 03:58:03;;;;;;;;;;;11.40;99.90;;;;;;5076542;28;19920;-76
2021/10/04 04:00:29;;;;;;;;;;;11.40;99.90;;;;;;5075552;28;19916;-77
2021/10/04 04:02:56;;;;;;;;;;;11.40;99.90;;;;;;5086361;28;19924;-77
2021/10/04 04:05:21;;;;;;;;;;;11.30;99.90;;;;;;5075767;28;20224;-76
2021/10/04 04:07:47;;;;;;;;;;;11.30;99.90;;;;;;5073162;28;19916;-76
2021/10/04 04:10:16;;;;;;;;;;;11.30;99.90;;;;;;5074141;28;20296;-77
2021/10/04 04:12:42;;;;;;;;;;;11.30;99.90;;;;;;5075141;28;19908;-76
2021/10/04 04:15:08;;;;;;;;;;;11.30;99.90;;;;;;5071122;28;19916;-76
2021/10/04 04:17:33;;;;;;;;;;;11.30;99.90;;;;;;5075685;28;20003;-76
2021/10/04 04:19:59;;;;;;;;;;;11.30;99.90;;;;;;5075530;28;19917;-76
2021/10/04 04:22:24;;;;;;;;;;;11.30;99.90;;;;;;5073880;28;19965;-76
2021/10/04 04:24:50;;;;;;;;;;;11.30;99.90;;;;;;5073779;28;19916;-77
2021/10/04 04:27:16;;;;;;;;;;;11.20;99.90;;;;;;5061673;28;20012;-76
2021/10/04 04:29:41;;;;;;;;;;;11.20;99.90;;;;;;5106495;28;20192;-76
2021/10/04 04:32:09;;;;;;;;;;;11.20;99.90;;;;;;5071706;28;19912;-76
2021/10/04 04:34:35;;;;;;;;;;;11.20;99.90;;;;;;5060604;28;19920;-77
2021/10/04 04:37:01;;;;;;;;;;;11.20;99.90;;;;;;5074955;28;20282;-77
2021/10/04 04:39:27;;;;;;;;;;;11.10;99.90;;;;;;5074759;28;19920;-76
2021/10/04 04:41:53;;;;;;;;;;;11.10;99.90;;;;;;5067660;28;19912;-76
2021/10/04 04:44:19;;;;;;;;;;;11.10;99.90;;;;;;5069198;28;19995;-77
2021/10/04 04:46:45;;;;;;;;;;;11.10;99.90;;;;;;5067550;28;20046;-76
2021/10/04 04:49:10;;;;;;;;;;;11.00;99.90;;;;;;5076283;28;20008;-76
2021/10/04 04:51:36;;;;;;;;;;;11.00;99.90;;;;;;5074459;28;19913;-77
2021/10/04 04:54:02;;;;;;;;;;;11.00;99.90;;;;;;5074939;28;20219;-77
2021/10/04 04:56:27;;;;;;;;;;;10.90;99.90;;;;;;5074013;28;20003;-76
2021/10/04 04:58:53;;;;;;;;;;;10.90;99.90;;;;;;5070416;28;19913;-77
2021/10/04 05:01:18;;;;;;;;;;;10.90;99.90;;;;;;5076766;28;20309;-77
2021/10/04 05:03:44;;;;;;;;;;;10.80;99.90;;;;;;5082270;28;19916;-76
2021/10/04 05:06:10;;;;;;;;;;;10.80;99.90;;;;;;5081080;28;19925;-77
2021/10/04 05:08:35;;;;;;;;;;;10.70;99.90;;;;;;5083687;28;20377;-76
2021/10/04 05:11:01;;;;;;;;;;;10.70;99.90;;;;;;5096580;28;20015;-77
2021/10/04 05:13:27;;;;;;;;;;;10.80;99.90;;;;;;5085337;28;19912;-75
2021/10/04 05:15:52;;;;;;;;;;;10.70;99.90;;;;;;5081352;28;19912;-76
2021/10/04 05:18:18;;;;;;;;;;;10.70;99.90;;;;;;5081278;28;19912;-76
2021/10/04 05:20:43;;;;;;;;;;;10.60;99.90;;;;;;5079954;28;19920;-77
2021/10/04 05:23:09;;;;;;;;;;;10.70;99.90;;;;;;5095871;28;19924;-76
2021/10/04 05:25:34;;;;;;;;;;;10.70;99.90;;;;;;5114887;28;19946;-76
2021/10/04 05:28:00;;;;;;;;;;;10.80;99.90;;;;;;5093056;28;19912;-77
2021/10/04 05:30:26;;;;;;;;;;;10.80;99.90;;;;;;5080809;28;20065;-77
2021/10/04 05:32:52;;;;;;;;;;;10.80;99.90;;;;;;5079328;28;20527;-77
2021/10/04 05:35:18;;;;;;;;;;;10.80;99.90;;;;;;5082486;28;20004;-77
2021/10/04 05:37:44;;;;;;;;;;;10.80;99.90;;;;;;5085507;28;19921;-77
2021/10/04 05:40:10;;;;;;;;;;;10.70;99.90;;;;;;5095767;28;19916;-76
2021/10/04 05:42:35;;;;;;;;;;;10.80;99.90;;;;;;5080003;28;19999;-76
2021/10/04 05:45:04;;;;;;;;;;;10.70;99.90;;;;;;5076911;28;20278;-77
2021/10/04 05:47:31;;;;;;;;;;;10.70;99.90;;;;;;5080124;28;19927;-76
2021/10/04 05:49:56;;;;;;;;;;;10.70;99.90;;;;;;5086319;28;19912;-76
2021/10/04 05:52:22;;;;;;;;;;;10.70;99.90;;;;;;5081909;28;20017;-77
2021/10/04 05:54:48;;;;;;;;;;;10.70;99.90;;;;;;5080924;28;19926;-77
2021/10/04 05:57:13;;;;;;;;;;;10.70;99.90;;;;;;5080620;28;19920;-77
2021/10/04 05:59:39;;;;;;;;;;;10.70;99.90;;;;;;5081777;28;19916;-77
2021/10/04 06:02:04;;;;;;;;;;;10.70;99.90;;;;;;5075280;28;19943;-77
2021/10/04 06:04:30;;;;;;;;;;;10.70;99.90;;;;;;5065439;28;19912;-77
2021/10/04 06:06:55;;;;;;;;;;;10.70;99.90;;;;;;5072429;28;19923;-77
2021/10/04 06:09:21;;;;;;;;;;;10.70;99.90;;;;;;5070148;28;20303;-76
2021/10/04 06:11:47;;;;;;;;;;;10.70;99.90;;;;;;5074154;28;20389;-77
2021/10/04 06:14:12;;;;;;;;;;;10.70;99.90;;;;;;5073286;28;19920;-77
2021/10/04 06:16:38;;;;;;;;;;;10.70;99.90;;;;;;5072042;28;19923;-75
2021/10/04 06:19:03;;;;;;;;;;;10.70;99.90;;;;;;5062054;28;20590;-77
2021/10/04 06:21:29;;;;;;;;;;;10.70;99.90;;;;;;5072915;28;19963;-77
2021/10/04 06:23:55;;;;;;;;;;;10.70;99.90;;;;;;5071533;28;19928;-78
2021/10/04 06:26:21;;;;;;;;;;;10.70;99.90;;;;;;5072599;28;19913;-77
2021/10/04 06:28:46;;;;;;;;;;;10.70;99.90;;;;;;5070498;28;20215;-76
2021/10/04 06:31:12;;;;;;;;;;;10.80;99.90;;;;;;5072808;28;20003;-77
2021/10/04 06:33:38;;;;;;;;;;;10.70;99.90;;;;;;5069517;28;19927;-78
2021/10/04 06:36:03;;;;;;;;;;;10.70;99.90;;;;;;5064872;28;20220;-77
2021/10/04 06:38:29;;;;;;;;;;;10.80;99.90;;;;;;5068015;28;19920;-77
2021/10/04 06:40:54;;;;;;;;;;;10.80;99.90;;;;;;5077256;28;20015;-78
2021/10/04 06:43:20;;;;;;;;;;;10.80;99.90;;;;;;5070331;28;19912;-78
2021/10/04 06:45:45;;;;;;;;;;;10.80;99.90;;;;;;5071324;28;20254;-76
2021/10/04 06:48:11;;;;;;;;;;;10.70;99.90;;;;;;5073366;28;19921;-78
2021/10/04 06:50:37;;;;;;;;;;;10.70;99.90;;;;;;5073855;28;20279;-77
2021/10/04 06:53:02;;;;;;;;;;;10.70;99.90;;;;;;5084515;28;19919;-76
2021/10/04 06:55:28;;;;;;;;;;;10.70;99.90;;;;;;5084910;28;19943;-77
2021/10/04 06:57:54;;;;;;;;;;;10.80;99.90;;;;;;5084175;28;20196;-78
2021/10/04 07:00:22;;;;;;;;;;;10.80;99.90;;;;;;5084300;28;20219;-78
2021/10/04 07:02:50;;;;;;;;;;;10.80;99.90;;;;;;5081779;28;19920;-77
2021/10/04 07:05:16;;;;;;;;;;;10.80;99.90;;;;;;5087627;28;19927;-77
2021/10/04 07:07:42;;;;;;;;;;;10.90;99.90;;;;;;5083360;28;19912;-78
2021/10/04 07:10:07;;;;;;;;;;;11.20;99.90;;;;;;5086337;28;20219;-77
2021/10/04 07:12:33;;;;;;;;;;;11.70;99.90;;;;;;5082279;28;19923;-78
2021/10/04 07:14:58;;;;;;;;;;;12.20;99.90;;;;;;5083590;28;19923;-78
2021/10/04 07:17:24;;;;;;;;;;;12.70;99.90;;;;;;5081552;28;19921;-77
2021/10/04 07:19:50;;;;;;;;;;;13.10;99.90;;;;;;5085009;28;19919;-77
2021/10/04 07:22:15;;;;;;;;;;;13.60;99.90;;;;;;5085790;28;19920;-77
2021/10/04 07:24:41;;;;;;;;;;;14.10;99.90;;;;;;5084785;28;19947;-78
2021/10/04 07:27:07;;;;;;;;;;;14.40;99.90;;;;;;5100891;28;19923;-78
2021/10/04 07:29:32;;;;;;;;;;;14.30;99.90;;;;;;5088563;28;19970;-77
2021/10/04 07:32:00;;;;;;;;;;;14.20;99.90;;;;;;5083253;28;19912;-80
2021/10/04 07:34:26;;;;;;;;;;;14.20;99.90;;;;;;5083446;28;19920;-79
2021/10/04 07:36:52;;;;;;;;;;;14.20;99.90;;;;;;5085707;28;19947;-78
2021/10/04 07:39:18;;;;;;;;;;;14.40;99.90;;;;;;5082336;28;19930;-78
2021/10/04 07:41:44;;;;;;;;;;;14.80;99.90;;;;;;5089138;28;19994;-78
2021/10/04 07:44:10;;;;;;;;;;;15.10;99.90;;;;;;5083650;28;19923;-79
2021/10/04 07:46:35;;;;;;;;;;;15.30;99.90;;;;;;5082158;28;20014;-78
2021/10/04 07:49:01;;;;;;;;;;;15.60;99.90;;;;;;5082802;28;20291;-78
2021/10/04 07:51:27;;;;;;;;;;;15.80;99.90;;;;;;5082668;28;19920;-79
2021/10/04 07:53:52;;;;;;;;;;;16.20;99.90;;;;;;5080632;28;20302;-79
2021/10/04 07:56:19;;;;;;;;;;;16.70;99.90;;;;;;5083747;28;19912;-77
2021/10/04 07:58:44;;;;;;;;;;;16.90;99.90;;;;;;5084785;28;19970;-78
2021/10/04 08:01:12;;;;;;;;;;;17.40;99.90;;;;;;5082139;28;19978;-80
2021/10/04 08:03:37;;;;;;;;;;;17.70;99.90;;;;;;5115797;27;19920;-80
2021/10/04 08:06:03;;;;;;;;;;;17.80;99.90;;;;;;5083637;28;19922;-80
2021/10/04 08:08:29;;;;;;;;;;;17.50;99.90;;;;;;5095877;28;19947;-78
2021/10/04 08:10:54;;;;;;;;;;;17.40;99.90;;;;;;5081544;28;19917;-77
2021/10/04 08:13:20;;;;;;;;;;;17.60;99.90;;;;;;5099727;28;19935;-78
2021/10/04 08:15:45;;;;;;;;;;;17.80;99.90;;;;;;5083506;28;20054;-81
2021/10/04 08:18:11;;;;;;;;;;;17.90;99.90;;;;;;5086417;28;19912;-78
2021/10/04 08:20:37;;;;;;;;;;;17.70;99.90;;;;;;5082835;28;19920;-77
2021/10/04 08:23:02;;;;;;;;;;;17.70;99.90;;;;;;5080519;28;19916;-79
2021/10/04 08:25:28;;;;;;;;;;;17.50;99.90;;;;;;5097251;28;19931;-79
2021/10/04 08:27:53;;;;;;;;;;;17.10;99.90;;;;;;5069169;28;19946;-78
2021/10/04 08:30:19;;;;;;;;;;;17.00;99.90;;;;;;5063855;28;19916;-79
2021/10/04 08:32:45;;;;;;;;;;;16.80;99.90;;;;;;5088029;28;19913;-78
2021/10/04 08:35:11;;;;;;;;;;;16.80;99.90;;;;;;5074894;28;19908;-78
2021/10/04 08:37:37;;;;;;;;;;;17.00;99.90;;;;;;5107472;28;20322;-79
2021/10/04 08:40:04;;;;;;;;;;;16.90;99.90;;;;;;5073951;28;19913;-78
2021/10/04 08:42:30;;;;;;;;;;;16.60;99.90;;;;;;5098148;28;19916;-80
2021/10/04 08:44:56;;;;;;;;;;;16.20;99.90;;;;;;5070271;28;19919;-78
2021/10/04 08:47:22;;;;;;;;;;;16.00;99.90;;;;;;5070614;28;19920;-79
2021/10/04 08:49:48;;;;;;;;;;;15.70;99.90;;;;;;5065108;28;19908;-79
2021/10/04 08:52:14;;;;;;;;;;;15.60;99.90;;;;;;5063900;28;19923;-79
2021/10/04 08:54:42;;;;;;;;;;;15.50;99.90;;;;;;5075175;28;19917;-78
2021/10/04 08:57:08;;;;;;;;;;;15.50;99.90;;;;;;5073551;28;19974;-80
2021/10/04 08:59:34;;;;;;;;;;;15.50;99.90;;;;;;5073699;28;19920;-81
2021/10/04 09:02:26;;;;;;;;;;;15.50;99.90;;;;;;5061627;28;20268;-81
2021/10/04 09:05:10;;;;;;;;;;;15.60;99.90;;;;;;5075033;28;19922;-79
2021/10/04 09:07:43;;;;;;;;;;;16.10;99.90;;;;;;5072738;28;19921;-81
2021/10/04 09:10:10;;;;;;;;;;;16.30;99.90;;;;;;5078464;28;19978;-79
2021/10/04 09:12:43;;;;;;;;;;;16.40;99.90;;;;;;5081185;28;19916;-79
2021/10/04 09:15:19;;;;;;;;;;;16.40;99.90;;;;;;5068880;28;20016;-78
2021/10/04 09:17:44;;;;;;;;;;;16.60;99.90;;;;;;5075989;28;19966;-79
2021/10/04 09:20:10;;;;;;;;;;;16.50;99.90;;;;;;5078466;28;19912;-79
2021/10/04 09:22:36;;;;;;;;;;;16.60;99.90;;;;;;5082000;28;20307;-78
2021/10/04 09:25:03;;;;;;;;;;;16.80;99.90;;;;;;5101436;28;19924;-80
2021/10/04 09:27:36;;;;;;;;;;;16.90;99.90;;;;;;5082624;28;21017;-80
2021/10/04 09:30:12;;;;;;;;;;;16.90;99.90;;;;;;5087377;28;19913;-79
2021/10/04 09:32:39;;;;;;;;;;;16.80;99.90;;;;;;5077642;28;19916;-82
2021/10/04 09:35:38;;;;;;;;;;;16.50;99.90;;;;;;5078073;28;20001;-80
2021/10/04 09:38:07;;;;;;;;;;;16.30;99.90;;;;;;5031020;28;19917;-79
2021/10/04 09:40:40;;;;;;;;;;;16.30;99.90;;;;;;5031375;28;19960;-80
2021/10/04 09:43:07;;;;;;;;;;;16.30;99.90;;;;;;5013539;28;20232;-83
2021/10/04 09:45:34;;;;;;;;;;;16.20;99.90;;;;;;5030358;28;20356;-81
2021/10/04 09:48:12;;;;;;;;;;;16.10;99.90;;;;;;5031432;28;20015;-80
2021/10/04 09:50:40;;;;;;;;;;;16.10;99.90;;;;;;5029391;28;19924;-79
2021/10/04 09:53:09;;;;;;;;;;;16.00;99.90;;;;;;5013443;28;19921;-79
2021/10/04 09:55:36;;;;;;;;;;;16.00;99.90;;;;;;5011784;28;20008;-80
2021/10/04 09:58:03;;;;;;;;;;;16.00;99.90;;;;;;5029593;28;19920;-79
2021/10/04 10:00:36;;;;;;;;;;;16.10;99.90;;;;;;5030294;28;19917;-78
2021/10/04 10:03:03;;;;;;;;;;;16.10;99.90;;;;;;5026011;28;20335;-79
2021/10/04 10:05:31;;;;;;;;;;;16.20;99.90;;;;;;5012808;28;19922;-81
2021/10/04 10:07:56;;;;;;;;;;;16.30;99.90;;;;;;5032361;28;19935;-80
2021/10/04 10:10:22;;;;;;;;;;;16.30;99.90;;;;;;5016082;28;19913;-79
2021/10/04 10:12:47;;;;;;;;;;;16.30;99.90;;;;;;5026386;28;19920;-80
2021/10/04 10:15:17;;;;;;;;;;;16.30;99.90;;;;;;5089953;28;19994;-81
2021/10/04 10:17:45;;;;;;;;;;;16.30;99.90;;;;;;5086335;28;20292;-78
2021/10/04 10:20:14;;;;;;;;;;;16.30;99.90;;;;;;5084319;28;19912;-80
2021/10/04 10:23:08;;;;;;;;;;;16.30;99.90;;;;;;5083414;28;19916;-82
2021/10/04 10:25:34;;;;;;;;;;;16.20;99.90;;;;;;5079792;28;19920;-84
2021/10/04 10:28:00;;;;;;;;;;;16.30;99.90;;;;;;5085410;28;19928;-82
2021/10/04 10:30:26;;;;;;;;;;;16.30;99.90;;;;;;5077029;28;19970;-80
2021/10/04 10:32:53;;;;;;;;;;;16.30;99.90;;;;;;5072629;28;19952;-84
2021/10/04 10:35:38;;;;;;;;;;;16.40;99.90;;;;;;5069419;28;19909;-79
2021/10/04 10:38:05;;;;;;;;;;;16.40;99.90;;;;;;5072646;28;19955;-83
2021/10/04 10:40:31;;;;;;;;;;;16.40;99.90;;;;;;5076278;28;20334;-81
2021/10/04 10:43:09;;;;;;;;;;;16.50;99.90;;;;;;5112509;27;19933;-79
2021/10/04 10:45:54;;;;;;;;;;;16.50;99.90;;;;;;5075142;28;19920;-80
2021/10/04 10:48:38;;;;;;;;;;;16.60;99.90;;;;;;5070123;28;19913;-80
2021/10/04 10:51:10;;;;;;;;;;;16.70;99.90;;;;;;5073399;28;19920;-79
2021/10/04 10:53:35;;;;;;;;;;;16.70;99.90;;;;;;5088205;28;19961;-79
2021/10/04 10:56:04;;;;;;;;;;;16.80;99.90;;;;;;5069251;28;19917;-83
2021/10/04 10:58:31;;;;;;;;;;;16.80;99.90;;;;;;5073579;28;19912;-78
2021/10/04 11:01:15;;;;;;;;;;;16.70;99.90;;;;;;5073410;28;20317;-78
2021/10/04 11:03:48;;;;;;;;;;;16.60;99.90;;;;;;5071562;28;19913;-79
2021/10/04 11:06:14;;;;;;;;;;;16.60;99.90;;;;;;5071832;28;19917;-78
2021/10/04 11:08:42;;;;;;;;;;;16.60;99.90;;;;;;5063256;28;20303;-78
2021/10/04 11:11:11;;;;;;;;;;;16.80;99.90;;;;;;5116761;27;20315;-80
2021/10/04 11:13:42;;;;;;;;;;;16.90;99.90;;;;;;5084970;28;19946;-78
2021/10/04 11:16:08;;;;;;;;;;;17.00;99.90;;;;;;5099223;28;19936;-80
2021/10/04 11:18:37;;;;;;;;;;;17.00;99.90;;;;;;5082410;28;20311;-79
2021/10/04 11:21:03;;;;;;;;;;;17.10;99.90;;;;;;5083631;28;19912;-79
2021/10/04 11:23:29;;;;;;;;;;;17.10;99.90;;;;;;5082241;28;19970;-79
2021/10/04 11:25:55;;;;;;;;;;;17.10;99.90;;;;;;5084812;28;19952;-79
2021/10/04 11:28:37;;;;;;;;;;;17.00;99.90;;;;;;5081349;28;19917;-78
2021/10/04 11:31:02;;;;;;;;;;;16.90;99.90;;;;;;5082646;28;20034;-78
2021/10/04 11:33:29;;;;;;;;;;;16.90;99.90;;;;;;5081797;28;20014;-80
2021/10/04 11:35:55;;;;;;;;;;;17.10;99.90;;;;;;5083757;28;19999;-80
2021/10/04 11:38:21;;;;;;;;;;;17.10;99.90;;;;;;5086853;28;20045;-81
2021/10/04 11:40:47;;;;;;;;;;;17.10;99.90;;;;;;5084903;28;20272;-80
2021/10/04 11:43:13;;;;;;;;;;;17.20;99.90;;;;;;5086683;28;20011;-79
2021/10/04 11:45:39;;;;;;;;;;;17.10;99.90;;;;;;5084696;28;20334;-78
2021/10/04 11:48:05;;;;;;;;;;;17.10;99.90;;;;;;5085301;28;19920;-78
2021/10/04 11:50:32;;;;;;;;;;;17.10;99.90;;;;;;5073799;28;19958;-81
2021/10/04 11:53:00;;;;;;;;;;;17.10;99.90;;;;;;5080989;28;19912;-84
2021/10/04 11:55:26;;;;;;;;;;;17.10;99.90;;;;;;5083778;28;19916;-78
2021/10/04 11:57:52;;;;;;;;;;;17.10;99.90;;;;;;5085749;28;19917;-83
2021/10/04 12:00:18;;;;;;;;;;;17.20;99.90;;;;;;5084748;28;19912;-85
2021/10/04 12:02:49;;;;;;;;;;;17.30;99.90;;;;;;5080341;28;19969;-88
2021/10/04 12:05:21;;;;;;;;;;;17.30;99.90;;;;;;5081306;28;19917;-86
2021/10/04 12:08:06;;;;;;;;;;;17.40;99.90;;;;;;5082149;28;19916;-83
2021/10/04 12:10:45;;;;;;;;;;;17.40;99.90;;;;;;5082461;28;19970;-80
2021/10/04 12:13:13;;;;;;;;;;;17.40;99.90;;;;;;5083482;28;20013;-80
2021/10/04 12:15:39;;;;;;;;;;;17.40;99.90;;;;;;5084788;28;19920;-80
2021/10/04 12:18:05;;;;;;;;;;;17.40;99.90;;;;;;5083341;28;20001;-81
2021/10/04 12:20:30;;;;;;;;;;;17.40;99.90;;;;;;5083019;28;19954;-80
2021/10/04 12:22:56;;;;;;;;;;;17.50;99.90;;;;;;5082493;28;20009;-79
2021/10/04 12:25:27;;;;;;;;;;;17.50;99.90;;;;;;5082583;28;19920;-92
2021/10/04 12:27:59;;;;;;;;;;;17.60;99.90;;;;;;5071166;28;19924;-80
2021/10/04 12:30:25;;;;;;;;;;;17.60;99.90;;;;;;5068129;28;19942;-82
2021/10/04 12:32:51;;;;;;;;;;;17.50;99.90;;;;;;5073151;28;19915;-80
2021/10/04 12:35:23;;;;;;;;;;;17.40;99.90;;;;;;5073873;28;19909;-79
2021/10/04 12:37:56;;;;;;;;;;;17.40;99.90;;;;;;5071929;28;20271;-80
2021/10/04 12:40:27;;;;;;;;;;;17.30;99.90;;;;;;5073571;28;19921;-93
2021/10/04 12:42:58;;;;;;;;;;;17.20;99.90;;;;;;5070483;28;19921;-80
2021/10/04 12:45:24;;;;;;;;;;;17.10;99.90;;;;;;5073801;28;20007;-79
2021/10/04 12:47:54;;;;;;;;;;;17.10;99.90;;;;;;5062479;28;20417;-78
2021/10/04 12:50:24;;;;;;;;;;;17.10;99.90;;;;;;5069924;28;20384;-80
2021/10/04 12:52:50;;;;;;;;;;;17.10;99.90;;;;;;5070577;28;20000;-80
2021/10/04 12:55:15;;;;;;;;;;;17.20;99.90;;;;;;5070197;28;19967;-79
2021/10/04 12:57:41;;;;;;;;;;;17.30;99.90;;;;;;5070377;28;19966;-79
2021/10/04 13:00:08;;;;;;;;;;;17.20;99.90;;;;;;5077795;28;19912;-79
2021/10/04 13:02:34;;;;;;;;;;;17.10;99.90;;;;;;5070433;28;19916;-89
2021/10/04 13:05:00;;;;;;;;;;;17.30;99.90;;;;;;5070928;28;19920;-78
2021/10/04 13:07:28;;;;;;;;;;;17.40;99.90;;;;;;5079691;28;19959;-78
2021/10/04 13:09:55;;;;;;;;;;;17.60;99.90;;;;;;5096701;28;19963;-79
2021/10/04 13:12:24;;;;;;;;;;;17.70;99.90;;;;;;5083958;28;19912;-79
2021/10/04 13:14:51;;;;;;;;;;;17.70;99.90;;;;;;5083337;28;19958;-80
2021/10/04 13:17:17;;;;;;;;;;;17.80;99.90;;;;;;5080396;28;20000;-82
2021/10/04 13:19:43;;;;;;;;;;;17.70;99.90;;;;;;5073469;28;20295;-79
2021/10/04 13:22:09;;;;;;;;;;;17.40;99.90;;;;;;5108171;27;19981;-79
2021/10/04 13:24:35;;;;;;;;;;;17.20;99.90;;;;;;5069566;28;20307;-82
2021/10/04 13:27:01;;;;;;;;;;;17.00;99.90;;;;;;5093745;28;19962;-79
2021/10/04 13:29:26;;;;;;;;;;;17.00;99.90;;;;;;5082408;28;19955;-79
2021/10/04 13:31:52;;;;;;;;;;;16.90;99.90;;;;;;5074323;28;19958;-79
2021/10/04 13:34:17;;;;;;;;;;;16.70;99.90;;;;;;5073869;28;20303;-78
2021/10/04 13:36:43;;;;;;;;;;;16.70;99.90;;;;;;5073300;28;19918;-80
2021/10/04 13:39:10;;;;;;;;;;;16.90;99.90;;;;;;5070121;28;19912;-85
2021/10/04 13:41:36;;;;;;;;;;;17.10;99.90;;;;;;5067136;28;19995;-80
2021/10/04 13:44:02;;;;;;;;;;;17.30;99.90;;;;;;5073404;28;19959;-79
2021/10/04 13:46:27;;;;;;;;;;;17.40;99.90;;;;;;5064594;28;19913;-78
2021/10/04 13:48:53;;;;;;;;;;;17.50;99.90;;;;;;5079739;28;20323;-78
2021/10/04 13:51:20;;;;;;;;;;;17.60;99.90;;;;;;5075459;28;19915;-78
2021/10/04 13:53:49;;;;;;;;;;;17.60;99.90;;;;;;5077527;28;19967;-80
2021/10/04 13:56:15;;;;;;;;;;;17.70;99.90;;;;;;5076785;28;20281;-79
2021/10/04 13:58:41;;;;;;;;;;;17.70;99.90;;;;;;5060817;28;19908;-80
2021/10/04 14:01:09;;;;;;;;;;;17.80;99.90;;;;;;5077004;28;20343;-79
2021/10/04 14:03:35;;;;;;;;;;;17.70;99.90;;;;;;5083227;28;19925;-79
2021/10/04 14:06:00;;;;;;;;;;;17.70;99.90;;;;;;5080383;28;20425;-80
2021/10/04 14:08:26;;;;;;;;;;;17.80;99.90;;;;;;5076506;28;19912;-79
2021/10/04 14:10:52;;;;;;;;;;;17.80;99.90;;;;;;5073462;28;19915;-80
2021/10/04 14:13:17;;;;;;;;;;;17.80;99.90;;;;;;5076190;28;19916;-82
2021/10/04 14:15:43;;;;;;;;;;;17.80;99.90;;;;;;5078198;28;19912;-80